sensor_id;sensor_type;location;lat;lon;timestamp;P1;durP1;ratioP1;P2;durP2;ratioP2
15643;SDS011;7921;43.586;1.408;2023-03-23T00:00:48;0.80;;;0.70;;
15643;SDS011;7921;43.586;1.408;2023-03-23T00:03:14;0.87;;;0.80;;
15643;SDS011;7921;43.586;1.408;2023-03-23T00:05:39;2.10;;;1.00;;
15643;SDS011;7921;43.586;1.408;2023-03-23T00:08:06;1.37;;;0.80;;
15643;SDS011;7921;43.586;1.408;2023-03-23T00:10:34;1.73;;;0.80;;
15643;SDS011;7921;43.586;1.408;2023-03-23T00:13:00;1.33;;;0.90;;
15643;SDS011;7921;43.586;1.408;2023-03-23T00:15:27;1.90;;;0.90;;
15643;SDS011;7921;43.586;1.408;2023-03-23T00:17:55;2.40;;;1.00;;
15643;SDS011;7921;43.586;1.408;2023-03-23T00:20:28;4.20;;;0.83;;
15643;SDS011;7921;43.586;1.408;2023-03-23T00:22:54;1.47;;;1.20;;
15643;SDS011;7921;43.586;1.408;2023-03-23T00:25:25;0.97;;;0.87;;
15643;SDS011;7921;43.586;1.408;2023-03-23T00:27:51;1.53;;;0.90;;
15643;SDS011;7921;43.586;1.408;2023-03-23T00:30:16;1.00;;;0.90;;
15643;SDS011;7921;43.586;1.408;2023-03-23T00:32:43;1.13;;;0.90;;
15643;SDS011;7921;43.586;1.408;2023-03-23T00:35:08;2.83;;;1.20;;
15643;SDS011;7921;43.586;1.408;2023-03-23T00:37:34;1.30;;;1.20;;
15643;SDS011;7921;43.586;1.408;2023-03-23T00:40:00;3.03;;;1.13;;
15643;SDS011;7921;43.586;1.408;2023-03-23T00:42:30;1.97;;;1.20;;
15643;SDS011;7921;43.586;1.408;2023-03-23T00:45:01;1.77;;;1.17;;
15643;SDS011;7921;43.586;1.408;2023-03-23T00:47:27;2.13;;;1.07;;
15643;SDS011;7921;43.586;1.408;2023-03-23T00:49:52;1.27;;;1.07;;
15643;SDS011;7921;43.586;1.408;2023-03-23T00:52:20;1.70;;;1.17;;
15643;SDS011;7921;43.586;1.408;2023-03-23T00:54:46;2.07;;;1.30;;
15643;SDS011;7921;43.586;1.408;2023-03-23T00:57:11;1.50;;;1.10;;
15643;SDS011;7921;43.586;1.408;2023-03-23T00:59:37;1.97;;;1.30;;
15643;SDS011;7921;43.586;1.408;2023-03-23T01:02:02;2.00;;;1.40;;
15643;SDS011;7921;43.586;1.408;2023-03-23T01:04:28;1.80;;;1.33;;
15643;SDS011;7921;43.586;1.408;2023-03-23T01:06:53;2.70;;;1.37;;
15643;SDS011;7921;43.586;1.408;2023-03-23T01:09:19;1.63;;;1.23;;
15643;SDS011;7921;43.586;1.408;2023-03-23T01:11:46;3.70;;;1.63;;
15643;SDS011;7921;43.586;1.408;2023-03-23T01:14:13;3.03;;;1.83;;
15643;SDS011;7921;43.586;1.408;2023-03-23T01:16:41;1.70;;;1.60;;
15643;SDS011;7921;43.586;1.408;2023-03-23T01:19:06;2.60;;;2.03;;
15643;SDS011;7921;43.586;1.408;2023-03-23T01:21:32;2.10;;;1.90;;
15643;SDS011;7921;43.586;1.408;2023-03-23T01:23:57;3.63;;;2.03;;
15643;SDS011;7921;43.586;1.408;2023-03-23T01:26:24;2.30;;;2.10;;
15643;SDS011;7921;43.586;1.408;2023-03-23T01:28:51;3.30;;;2.10;;
15643;SDS011;7921;43.586;1.408;2023-03-23T01:31:18;2.60;;;2.10;;
15643;SDS011;7921;43.586;1.408;2023-03-23T01:33:45;2.97;;;2.40;;
15643;SDS011;7921;43.586;1.408;2023-03-23T01:36:12;2.33;;;1.93;;
15643;SDS011;7921;43.586;1.408;2023-03-23T01:38:40;3.67;;;2.43;;
15643;SDS011;7921;43.586;1.408;2023-03-23T01:41:06;2.77;;;2.57;;
15643;SDS011;7921;43.586;1.408;2023-03-23T01:43:32;2.60;;;2.30;;
15643;SDS011;7921;43.586;1.408;2023-03-23T01:45:57;5.47;;;2.70;;
15643;SDS011;7921;43.586;1.408;2023-03-23T01:48:23;3.50;;;3.20;;
15643;SDS011;7921;43.586;1.408;2023-03-23T01:53:20;3.83;;;3.23;;
15643;SDS011;7921;43.586;1.408;2023-03-23T01:55:47;3.60;;;3.30;;
15643;SDS011;7921;43.586;1.408;2023-03-23T01:58:16;4.27;;;3.40;;
15643;SDS011;7921;43.586;1.408;2023-03-23T02:00:42;3.67;;;3.37;;
15643;SDS011;7921;43.586;1.408;2023-03-23T02:03:08;5.57;;;4.17;;
15643;SDS011;7921;43.586;1.408;2023-03-23T02:05:39;6.63;;;4.40;;
15643;SDS011;7921;43.586;1.408;2023-03-23T02:08:06;5.10;;;4.27;;
15643;SDS011;7921;43.586;1.408;2023-03-23T02:10:34;4.80;;;4.40;;
15643;SDS011;7921;43.586;1.408;2023-03-23T02:13:00;6.20;;;4.53;;
15643;SDS011;7921;43.586;1.408;2023-03-23T02:15:28;5.20;;;4.70;;
15643;SDS011;7921;43.586;1.408;2023-03-23T02:25:59;5.70;;;5.10;;
15643;SDS011;7921;43.586;1.408;2023-03-23T02:28:41;5.20;;;4.80;;
15643;SDS011;7921;43.586;1.408;2023-03-23T02:33:56;6.00;;;5.40;;
15643;SDS011;7921;43.586;1.408;2023-03-23T02:36:30;5.47;;;4.90;;
15643;SDS011;7921;43.586;1.408;2023-03-23T02:41:45;6.47;;;5.87;;
15643;SDS011;7921;43.586;1.408;2023-03-23T02:44:14;6.53;;;5.57;;
15643;SDS011;7921;43.586;1.408;2023-03-23T02:46:41;6.47;;;5.87;;
15643;SDS011;7921;43.586;1.408;2023-03-23T02:49:08;5.43;;;4.93;;
15643;SDS011;7921;43.586;1.408;2023-03-23T02:51:35;6.97;;;5.47;;
15643;SDS011;7921;43.586;1.408;2023-03-23T02:54:02;6.57;;;6.00;;
15643;SDS011;7921;43.586;1.408;2023-03-23T02:56:29;7.90;;;6.20;;
15643;SDS011;7921;43.586;1.408;2023-03-23T02:58:55;6.97;;;5.70;;
15643;SDS011;7921;43.586;1.408;2023-03-23T03:03:54;6.27;;;5.53;;
15643;SDS011;7921;43.586;1.408;2023-03-23T03:09:46;6.03;;;5.43;;
15643;SDS011;7921;43.586;1.408;2023-03-23T03:12:22;6.00;;;5.37;;
15643;SDS011;7921;43.586;1.408;2023-03-23T03:17:47;6.63;;;5.17;;
15643;SDS011;7921;43.586;1.408;2023-03-23T03:20:18;7.20;;;5.73;;
15643;SDS011;7921;43.586;1.408;2023-03-23T03:22:44;5.97;;;5.37;;
15643;SDS011;7921;43.586;1.408;2023-03-23T03:25:11;5.50;;;4.93;;
15643;SDS011;7921;43.586;1.408;2023-03-23T03:27:38;6.73;;;5.30;;
15643;SDS011;7921;43.586;1.408;2023-03-23T03:30:06;6.63;;;5.17;;
15643;SDS011;7921;43.586;1.408;2023-03-23T03:32:36;5.83;;;5.20;;
15643;SDS011;7921;43.586;1.408;2023-03-23T03:35:05;6.03;;;4.83;;
15643;SDS011;7921;43.586;1.408;2023-03-23T03:37:34;7.27;;;5.07;;
15643;SDS011;7921;43.586;1.408;2023-03-23T03:40:03;5.57;;;5.03;;
15643;SDS011;7921;43.586;1.408;2023-03-23T03:42:36;6.10;;;4.63;;
15643;SDS011;7921;43.586;1.408;2023-03-23T03:45:06;5.20;;;4.80;;
15643;SDS011;7921;43.586;1.408;2023-03-23T03:47:35;6.13;;;4.63;;
15643;SDS011;7921;43.586;1.408;2023-03-23T03:50:00;4.90;;;4.50;;
15643;SDS011;7921;43.586;1.408;2023-03-23T03:52:26;5.37;;;4.73;;
15643;SDS011;7921;43.586;1.408;2023-03-23T03:54:52;5.78;;;5.18;;
15643;SDS011;7921;43.586;1.408;2023-03-23T03:57:18;6.30;;;4.80;;
15643;SDS011;7921;43.586;1.408;2023-03-23T03:59:44;5.93;;;4.73;;
15643;SDS011;7921;43.586;1.408;2023-03-23T04:02:10;6.20;;;4.83;;
15643;SDS011;7921;43.586;1.408;2023-03-23T04:04:38;4.93;;;4.40;;
15643;SDS011;7921;43.586;1.408;2023-03-23T04:07:05;6.40;;;4.47;;
15643;SDS011;7921;43.586;1.408;2023-03-23T04:09:30;6.47;;;4.40;;
15643;SDS011;7921;43.586;1.408;2023-03-23T04:11:56;7.13;;;5.00;;
15643;SDS011;7921;43.586;1.408;2023-03-23T04:14:21;5.47;;;4.80;;
15643;SDS011;7921;43.586;1.408;2023-03-23T04:16:47;5.60;;;5.10;;
15643;SDS011;7921;43.586;1.408;2023-03-23T04:19:12;5.90;;;5.33;;
15643;SDS011;7921;43.586;1.408;2023-03-23T04:21:38;5.60;;;4.93;;
15643;SDS011;7921;43.586;1.408;2023-03-23T04:24:03;5.67;;;5.00;;
15643;SDS011;7921;43.586;1.408;2023-03-23T04:26:29;6.67;;;5.23;;
15643;SDS011;7921;43.586;1.408;2023-03-23T04:28:54;5.40;;;5.00;;
15643;SDS011;7921;43.586;1.408;2023-03-23T04:31:21;6.23;;;5.60;;
15643;SDS011;7921;43.586;1.408;2023-03-23T04:33:49;5.90;;;5.40;;
15643;SDS011;7921;43.586;1.408;2023-03-23T04:36:17;7.33;;;5.53;;
15643;SDS011;7921;43.586;1.408;2023-03-23T04:38:43;6.40;;;5.73;;
15643;SDS011;7921;43.586;1.408;2023-03-23T04:41:08;6.83;;;5.70;;
15643;SDS011;7921;43.586;1.408;2023-03-23T04:43:34;6.63;;;5.97;;
15643;SDS011;7921;43.586;1.408;2023-03-23T04:46:06;6.93;;;6.17;;
15643;SDS011;7921;43.586;1.408;2023-03-23T04:48:33;6.47;;;5.87;;
15643;SDS011;7921;43.586;1.408;2023-03-23T04:51:03;7.47;;;6.17;;
15643;SDS011;7921;43.586;1.408;2023-03-23T04:53:29;7.00;;;6.33;;
15643;SDS011;7921;43.586;1.408;2023-03-23T04:55:55;8.10;;;6.20;;
15643;SDS011;7921;43.586;1.408;2023-03-23T04:58:21;7.17;;;6.47;;
15643;SDS011;7921;43.586;1.408;2023-03-23T05:00:48;7.97;;;6.53;;
15643;SDS011;7921;43.586;1.408;2023-03-23T05:03:16;7.57;;;6.87;;
15643;SDS011;7921;43.586;1.408;2023-03-23T05:05:42;8.30;;;6.97;;
15643;SDS011;7921;43.586;1.408;2023-03-23T05:08:11;7.27;;;6.67;;
15643;SDS011;7921;43.586;1.408;2023-03-23T05:10:37;9.20;;;7.40;;
15643;SDS011;7921;43.586;1.408;2023-03-23T05:13:03;7.57;;;6.87;;
15643;SDS011;7921;43.586;1.408;2023-03-23T05:15:28;9.10;;;6.60;;
15643;SDS011;7921;43.586;1.408;2023-03-23T05:17:54;7.67;;;6.93;;
15643;SDS011;7921;43.586;1.408;2023-03-23T05:20:20;7.60;;;6.67;;
15643;SDS011;7921;43.586;1.408;2023-03-23T05:22:47;7.73;;;6.90;;
15643;SDS011;7921;43.586;1.408;2023-03-23T05:25:14;8.17;;;7.30;;
15643;SDS011;7921;43.586;1.408;2023-03-23T05:27:40;7.90;;;6.13;;
15643;SDS011;7921;43.586;1.408;2023-03-23T05:30:08;7.00;;;6.30;;
15643;SDS011;7921;43.586;1.408;2023-03-23T05:32:34;7.93;;;6.63;;
15643;SDS011;7921;43.586;1.408;2023-03-23T05:35:00;7.53;;;6.83;;
15643;SDS011;7921;43.586;1.408;2023-03-23T05:37:26;9.20;;;7.67;;
15643;SDS011;7921;43.586;1.408;2023-03-23T05:39:53;7.53;;;6.93;;
15643;SDS011;7921;43.586;1.408;2023-03-23T05:42:20;7.73;;;7.00;;
15643;SDS011;7921;43.586;1.408;2023-03-23T05:44:49;7.67;;;6.97;;
15643;SDS011;7921;43.586;1.408;2023-03-23T05:47:14;7.93;;;7.23;;
15643;SDS011;7921;43.586;1.408;2023-03-23T05:49:40;7.60;;;6.87;;
15643;SDS011;7921;43.586;1.408;2023-03-23T05:52:06;7.80;;;7.20;;
15643;SDS011;7921;43.586;1.408;2023-03-23T05:54:32;8.10;;;7.30;;
15643;SDS011;7921;43.586;1.408;2023-03-23T05:56:59;7.87;;;7.17;;
15643;SDS011;7921;43.586;1.408;2023-03-23T05:59:24;8.00;;;7.20;;
15643;SDS011;7921;43.586;1.408;2023-03-23T06:01:50;7.90;;;7.20;;
15643;SDS011;7921;43.586;1.408;2023-03-23T06:04:16;8.90;;;7.70;;
15643;SDS011;7921;43.586;1.408;2023-03-23T06:06:42;8.10;;;6.77;;
15643;SDS011;7921;43.586;1.408;2023-03-23T06:09:08;8.07;;;6.90;;
15643;SDS011;7921;43.586;1.408;2023-03-23T06:11:34;7.80;;;6.97;;
15643;SDS011;7921;43.586;1.408;2023-03-23T06:14:00;7.53;;;6.93;;
15643;SDS011;7921;43.586;1.408;2023-03-23T06:16:26;8.00;;;7.30;;
15643;SDS011;7921;43.586;1.408;2023-03-23T06:18:51;9.90;;;7.63;;
15643;SDS011;7921;43.586;1.408;2023-03-23T06:21:17;8.87;;;7.20;;
15643;SDS011;7921;43.586;1.408;2023-03-23T06:23:43;8.10;;;7.40;;
15643;SDS011;7921;43.586;1.408;2023-03-23T06:26:11;8.10;;;7.30;;
15643;SDS011;7921;43.586;1.408;2023-03-23T06:28:41;7.43;;;6.70;;
15643;SDS011;7921;43.586;1.408;2023-03-23T06:31:06;7.47;;;6.77;;
15643;SDS011;7921;43.586;1.408;2023-03-23T06:33:33;8.07;;;7.20;;
15643;SDS011;7921;43.586;1.408;2023-03-23T06:36:00;9.43;;;7.80;;
15643;SDS011;7921;43.586;1.408;2023-03-23T06:38:26;9.67;;;6.90;;
15643;SDS011;7921;43.586;1.408;2023-03-23T06:40:52;7.13;;;6.53;;
15643;SDS011;7921;43.586;1.408;2023-03-23T06:43:18;7.13;;;6.53;;
15643;SDS011;7921;43.586;1.408;2023-03-23T06:45:44;8.83;;;7.00;;
15643;SDS011;7921;43.586;1.408;2023-03-23T06:48:09;8.85;;;7.53;;
15643;SDS011;7921;43.586;1.408;2023-03-23T06:50:34;8.40;;;6.73;;
15643;SDS011;7921;43.586;1.408;2023-03-23T06:53:00;8.27;;;7.13;;
15643;SDS011;7921;43.586;1.408;2023-03-23T06:55:25;7.07;;;6.43;;
15643;SDS011;7921;43.586;1.408;2023-03-23T06:57:51;8.27;;;6.47;;
15643;SDS011;7921;43.586;1.408;2023-03-23T07:00:16;6.63;;;6.03;;
15643;SDS011;7921;43.586;1.408;2023-03-23T07:02:42;6.87;;;6.27;;
15643;SDS011;7921;43.586;1.408;2023-03-23T07:05:08;7.20;;;6.50;;
15643;SDS011;7921;43.586;1.408;2023-03-23T07:07:35;5.90;;;5.27;;
15643;SDS011;7921;43.586;1.408;2023-03-23T07:10:07;6.50;;;5.90;;
15643;SDS011;7921;43.586;1.408;2023-03-23T07:12:36;6.97;;;6.10;;
15643;SDS011;7921;43.586;1.408;2023-03-23T07:15:05;9.60;;;6.40;;
15643;SDS011;7921;43.586;1.408;2023-03-23T07:17:32;6.20;;;5.60;;
15643;SDS011;7921;43.586;1.408;2023-03-23T07:19:58;6.70;;;6.03;;
15643;SDS011;7921;43.586;1.408;2023-03-23T07:22:23;7.13;;;6.43;;
15643;SDS011;7921;43.586;1.408;2023-03-23T07:24:49;7.97;;;6.40;;
15643;SDS011;7921;43.586;1.408;2023-03-23T07:27:14;8.27;;;6.83;;
15643;SDS011;7921;43.586;1.408;2023-03-23T07:29:40;7.23;;;6.17;;
15643;SDS011;7921;43.586;1.408;2023-03-23T07:32:06;7.70;;;6.90;;
15643;SDS011;7921;43.586;1.408;2023-03-23T07:34:33;6.87;;;6.27;;
15643;SDS011;7921;43.586;1.408;2023-03-23T07:36:59;7.43;;;6.83;;
15643;SDS011;7921;43.586;1.408;2023-03-23T07:39:25;7.33;;;6.60;;
15643;SDS011;7921;43.586;1.408;2023-03-23T07:41:51;6.70;;;6.03;;
15643;SDS011;7921;43.586;1.408;2023-03-23T07:44:16;6.97;;;6.20;;
15643;SDS011;7921;43.586;1.408;2023-03-23T07:46:42;7.23;;;6.67;;
15643;SDS011;7921;43.586;1.408;2023-03-23T07:49:08;7.33;;;6.67;;
15643;SDS011;7921;43.586;1.408;2023-03-23T07:51:34;7.50;;;6.80;;
15643;SDS011;7921;43.586;1.408;2023-03-23T07:54:00;7.60;;;6.90;;
15643;SDS011;7921;43.586;1.408;2023-03-23T07:56:28;6.77;;;6.17;;
15643;SDS011;7921;43.586;1.408;2023-03-23T07:58:55;7.33;;;6.63;;
15643;SDS011;7921;43.586;1.408;2023-03-23T08:01:21;8.17;;;6.67;;
15643;SDS011;7921;43.586;1.408;2023-03-23T08:03:48;8.10;;;6.73;;
15643;SDS011;7921;43.586;1.408;2023-03-23T08:06:13;6.63;;;6.00;;
15643;SDS011;7921;43.586;1.408;2023-03-23T08:08:40;7.30;;;6.57;;
15643;SDS011;7921;43.586;1.408;2023-03-23T08:11:06;6.63;;;5.63;;
15643;SDS011;7921;43.586;1.408;2023-03-23T08:13:31;7.90;;;5.50;;
15643;SDS011;7921;43.586;1.408;2023-03-23T08:15:58;5.47;;;4.97;;
15643;SDS011;7921;43.586;1.408;2023-03-23T08:18:25;5.25;;;4.78;;
15643;SDS011;7921;43.586;1.408;2023-03-23T08:20:51;5.35;;;4.45;;
15643;SDS011;7921;43.586;1.408;2023-03-23T08:23:17;5.75;;;5.25;;
15643;SDS011;7921;43.586;1.408;2023-03-23T08:25:43;5.90;;;5.10;;
15643;SDS011;7921;43.586;1.408;2023-03-23T08:28:08;6.47;;;4.85;;
15643;SDS011;7921;43.586;1.408;2023-03-23T08:30:34;5.30;;;4.65;;
15643;SDS011;7921;43.586;1.408;2023-03-23T08:33:01;5.75;;;4.70;;
15643;SDS011;7921;43.586;1.408;2023-03-23T08:35:27;4.78;;;4.32;;
15643;SDS011;7921;43.586;1.408;2023-03-23T08:37:53;5.00;;;4.50;;
15643;SDS011;7921;43.586;1.408;2023-03-23T08:40:20;5.85;;;4.05;;
15643;SDS011;7921;43.586;1.408;2023-03-23T08:42:47;4.55;;;4.15;;
15643;SDS011;7921;43.586;1.408;2023-03-23T08:45:14;4.28;;;3.88;;
15643;SDS011;7921;43.586;1.408;2023-03-23T08:47:41;3.80;;;3.45;;
15643;SDS011;7921;43.586;1.408;2023-03-23T08:50:13;5.70;;;4.35;;
15643;SDS011;7921;43.586;1.408;2023-03-23T08:52:41;5.13;;;3.92;;
15643;SDS011;7921;43.586;1.408;2023-03-23T08:55:08;4.57;;;4.18;;
15643;SDS011;7921;43.586;1.408;2023-03-23T08:57:34;4.55;;;4.10;;
15643;SDS011;7921;43.586;1.408;2023-03-23T09:00:01;4.75;;;4.35;;
15643;SDS011;7921;43.586;1.408;2023-03-23T09:02:38;4.78;;;4.38;;
15643;SDS011;7921;43.586;1.408;2023-03-23T09:05:05;4.50;;;4.05;;
15643;SDS011;7921;43.586;1.408;2023-03-23T09:07:32;4.40;;;4.00;;
15643;SDS011;7921;43.586;1.408;2023-03-23T09:09:57;4.75;;;3.97;;
15643;SDS011;7921;43.586;1.408;2023-03-23T09:12:22;4.90;;;4.18;;
15643;SDS011;7921;43.586;1.408;2023-03-23T09:14:48;4.68;;;3.50;;
15643;SDS011;7921;43.586;1.408;2023-03-23T09:17:14;4.55;;;3.65;;
15643;SDS011;7921;43.586;1.408;2023-03-23T09:19:39;4.15;;;3.78;;
15643;SDS011;7921;43.586;1.408;2023-03-23T09:22:06;4.38;;;3.88;;
15643;SDS011;7921;43.586;1.408;2023-03-23T09:24:33;4.05;;;3.75;;
15643;SDS011;7921;43.586;1.408;2023-03-23T09:26:58;4.03;;;3.63;;
15643;SDS011;7921;43.586;1.408;2023-03-23T09:29:24;4.00;;;3.70;;
15643;SDS011;7921;43.586;1.408;2023-03-23T09:31:51;3.67;;;3.40;;
15643;SDS011;7921;43.586;1.408;2023-03-23T09:34:17;4.30;;;3.90;;
15643;SDS011;7921;43.586;1.408;2023-03-23T09:36:43;4.43;;;3.92;;
15643;SDS011;7921;43.586;1.408;2023-03-23T09:39:09;4.18;;;3.78;;
15643;SDS011;7921;43.586;1.408;2023-03-23T09:41:51;4.38;;;3.83;;
15643;SDS011;7921;43.586;1.408;2023-03-23T09:46:57;4.70;;;4.28;;
15643;SDS011;7921;43.586;1.408;2023-03-23T09:49:32;4.80;;;4.22;;
15643;SDS011;7921;43.586;1.408;2023-03-23T09:52:01;4.63;;;3.75;;
15643;SDS011;7921;43.586;1.408;2023-03-23T09:54:50;4.20;;;3.80;;
15643;SDS011;7921;43.586;1.408;2023-03-23T10:00:18;4.45;;;3.97;;
15643;SDS011;7921;43.586;1.408;2023-03-23T10:02:49;3.83;;;3.38;;
15643;SDS011;7921;43.586;1.408;2023-03-23T10:05:39;4.10;;;3.60;;
15643;SDS011;7921;43.586;1.408;2023-03-23T10:08:40;3.78;;;3.47;;
15643;SDS011;7921;43.586;1.408;2023-03-23T10:13:35;3.65;;;3.42;;
15643;SDS011;7921;43.586;1.408;2023-03-23T10:16:06;3.70;;;3.28;;
15643;SDS011;7921;43.586;1.408;2023-03-23T10:21:02;3.78;;;3.22;;
15643;SDS011;7921;43.586;1.408;2023-03-23T10:29:01;3.63;;;3.15;;
15643;SDS011;7921;43.586;1.408;2023-03-23T10:31:34;3.88;;;3.50;;
15643;SDS011;7921;43.586;1.408;2023-03-23T10:34:17;4.47;;;3.60;;
15643;SDS011;7921;43.586;1.408;2023-03-23T10:39:21;5.38;;;3.58;;
15643;SDS011;7921;43.586;1.408;2023-03-23T10:41:48;3.08;;;2.78;;
15643;SDS011;7921;43.586;1.408;2023-03-23T10:44:18;3.40;;;3.10;;
15643;SDS011;7921;43.586;1.408;2023-03-23T10:49:25;4.63;;;3.00;;
15643;SDS011;7921;43.586;1.408;2023-03-23T10:54:37;3.40;;;3.17;;
15643;SDS011;7921;43.586;1.408;2023-03-23T10:57:40;3.45;;;3.13;;
15643;SDS011;7921;43.586;1.408;2023-03-23T11:02:41;3.92;;;3.30;;
15643;SDS011;7921;43.586;1.408;2023-03-23T11:05:20;3.22;;;3.00;;
15643;SDS011;7921;43.586;1.408;2023-03-23T11:07:55;3.75;;;3.53;;
15643;SDS011;7921;43.586;1.408;2023-03-23T11:10:23;3.58;;;3.28;;
15643;SDS011;7921;43.586;1.408;2023-03-23T11:12:50;5.57;;;3.53;;
15643;SDS011;7921;43.586;1.408;2023-03-23T11:15:28;4.32;;;3.33;;
15643;SDS011;7921;43.586;1.408;2023-03-23T11:17:59;3.80;;;3.42;;
15643;SDS011;7921;43.586;1.408;2023-03-23T11:20:34;4.55;;;3.75;;
15643;SDS011;7921;43.586;1.408;2023-03-23T11:25:52;5.28;;;4.88;;
15643;SDS011;7921;43.586;1.408;2023-03-23T11:28:18;7.82;;;7.03;;
15643;SDS011;7921;43.586;1.408;2023-03-23T11:30:43;6.47;;;5.88;;
15643;SDS011;7921;43.586;1.408;2023-03-23T11:33:09;4.75;;;4.13;;
15643;SDS011;7921;43.586;1.408;2023-03-23T11:35:35;4.88;;;4.13;;
15643;SDS011;7921;43.586;1.408;2023-03-23T11:38:01;4.60;;;4.20;;
15643;SDS011;7921;43.586;1.408;2023-03-23T11:40:29;6.45;;;4.30;;
15643;SDS011;7921;43.586;1.408;2023-03-23T11:42:58;4.40;;;4.00;;
15643;SDS011;7921;43.586;1.408;2023-03-23T11:45:39;5.45;;;3.88;;
15643;SDS011;7921;43.586;1.408;2023-03-23T11:56:11;4.03;;;3.72;;
15643;SDS011;7921;43.586;1.408;2023-03-23T11:58:38;4.75;;;3.53;;
15643;SDS011;7921;43.586;1.408;2023-03-23T12:01:21;7.13;;;3.88;;
15643;SDS011;7921;43.586;1.408;2023-03-23T12:11:49;3.95;;;3.65;;
15643;SDS011;7921;43.586;1.408;2023-03-23T12:15:22;4.55;;;4.15;;
15643;SDS011;7921;43.586;1.408;2023-03-23T12:23:25;4.18;;;3.88;;
15643;SDS011;7921;43.586;1.408;2023-03-23T12:28:59;5.00;;;4.00;;
15643;SDS011;7921;43.586;1.408;2023-03-23T12:31:56;7.18;;;4.25;;
15643;SDS011;7921;43.586;1.408;2023-03-23T12:40:06;4.00;;;3.70;;
15643;SDS011;7921;43.586;1.408;2023-03-23T12:48:00;4.68;;;4.13;;
15643;SDS011;7921;43.586;1.408;2023-03-23T12:51:11;5.82;;;3.80;;
15643;SDS011;7921;43.586;1.408;2023-03-23T12:53:41;4.95;;;4.18;;
15643;SDS011;7921;43.586;1.408;2023-03-23T12:59:21;4.90;;;3.70;;
15643;SDS011;7921;43.586;1.408;2023-03-23T13:02:06;5.32;;;3.60;;
15643;SDS011;7921;43.586;1.408;2023-03-23T13:04:40;4.53;;;3.97;;
15643;SDS011;7921;43.586;1.408;2023-03-23T13:07:10;4.57;;;3.78;;
15643;SDS011;7921;43.586;1.408;2023-03-23T13:09:58;4.13;;;3.72;;
15643;SDS011;7921;43.586;1.408;2023-03-23T13:12:47;4.00;;;3.63;;
15643;SDS011;7921;43.586;1.408;2023-03-23T13:15:19;3.85;;;3.42;;
15643;SDS011;7921;43.586;1.408;2023-03-23T13:23:31;5.03;;;3.58;;
15643;SDS011;7921;43.586;1.408;2023-03-23T13:28:28;4.35;;;3.65;;
15643;SDS011;7921;43.586;1.408;2023-03-23T13:31:11;4.93;;;3.85;;
15643;SDS011;7921;43.586;1.408;2023-03-23T13:33:38;4.95;;;3.70;;
15643;SDS011;7921;43.586;1.408;2023-03-23T13:36:10;3.92;;;3.55;;
15643;SDS011;7921;43.586;1.408;2023-03-23T13:38:36;4.00;;;3.60;;
15643;SDS011;7921;43.586;1.408;2023-03-23T13:41:06;4.80;;;3.70;;
15643;SDS011;7921;43.586;1.408;2023-03-23T13:43:35;4.07;;;3.78;;
15643;SDS011;7921;43.586;1.408;2023-03-23T13:57:01;3.35;;;3.03;;
15643;SDS011;7921;43.586;1.408;2023-03-23T13:59:30;3.75;;;3.38;;
15643;SDS011;7921;43.586;1.408;2023-03-23T14:04:55;5.00;;;3.60;;
15643;SDS011;7921;43.586;1.408;2023-03-23T14:07:21;5.15;;;3.50;;
15643;SDS011;7921;43.586;1.408;2023-03-23T14:09:49;5.68;;;3.50;;
15643;SDS011;7921;43.586;1.408;2023-03-23T14:12:17;3.63;;;3.33;;
15643;SDS011;7921;43.586;1.408;2023-03-23T14:14:45;3.45;;;3.15;;
15643;SDS011;7921;43.586;1.408;2023-03-23T14:19:48;3.78;;;3.50;;
15643;SDS011;7921;43.586;1.408;2023-03-23T14:22:17;4.20;;;3.13;;
15643;SDS011;7921;43.586;1.408;2023-03-23T14:24:51;4.55;;;3.30;;
15643;SDS011;7921;43.586;1.408;2023-03-23T14:27:23;4.45;;;3.10;;
15643;SDS011;7921;43.586;1.408;2023-03-23T14:30:02;4.68;;;3.25;;
15643;SDS011;7921;43.586;1.408;2023-03-23T14:32:31;3.75;;;3.45;;
15643;SDS011;7921;43.586;1.408;2023-03-23T14:34:57;4.38;;;3.70;;
15643;SDS011;7921;43.586;1.408;2023-03-23T14:37:23;6.10;;;3.30;;
15643;SDS011;7921;43.586;1.408;2023-03-23T14:39:50;5.68;;;3.50;;
15643;SDS011;7921;43.586;1.408;2023-03-23T14:42:19;4.90;;;3.20;;
15643;SDS011;7921;43.586;1.408;2023-03-23T14:44:52;4.20;;;3.55;;
15643;SDS011;7921;43.586;1.408;2023-03-23T14:47:19;4.55;;;4.15;;
15643;SDS011;7921;43.586;1.408;2023-03-23T14:49:46;4.47;;;4.07;;
15643;SDS011;7921;43.586;1.408;2023-03-23T14:52:13;5.43;;;4.53;;
15643;SDS011;7921;43.586;1.408;2023-03-23T14:54:42;4.30;;;3.90;;
15643;SDS011;7921;43.586;1.408;2023-03-23T14:57:12;4.50;;;4.10;;
15643;SDS011;7921;43.586;1.408;2023-03-23T14:59:40;6.18;;;4.38;;
15643;SDS011;7921;43.586;1.408;2023-03-23T15:02:09;5.20;;;4.07;;
15643;SDS011;7921;43.586;1.408;2023-03-23T15:04:41;4.60;;;3.97;;
15643;SDS011;7921;43.586;1.408;2023-03-23T15:07:08;5.15;;;3.95;;
15643;SDS011;7921;43.586;1.408;2023-03-23T15:09:37;4.00;;;3.60;;
15643;SDS011;7921;43.586;1.408;2023-03-23T15:12:05;4.57;;;3.85;;
15643;SDS011;7921;43.586;1.408;2023-03-23T15:14:32;4.70;;;4.10;;
15643;SDS011;7921;43.586;1.408;2023-03-23T15:17:02;5.75;;;4.60;;
15643;SDS011;7921;43.586;1.408;2023-03-23T15:19:28;5.03;;;4.57;;
15643;SDS011;7921;43.586;1.408;2023-03-23T15:22:22;5.28;;;4.38;;
15643;SDS011;7921;43.586;1.408;2023-03-23T15:24:47;5.03;;;4.05;;
15643;SDS011;7921;43.586;1.408;2023-03-23T15:27:28;4.78;;;3.95;;
15643;SDS011;7921;43.586;1.408;2023-03-23T15:29:59;5.68;;;4.30;;
15643;SDS011;7921;43.586;1.408;2023-03-23T15:32:40;9.82;;;4.63;;
15643;SDS011;7921;43.586;1.408;2023-03-23T15:35:19;4.47;;;4.07;;
15643;SDS011;7921;43.586;1.408;2023-03-23T15:37:48;4.72;;;3.72;;
15643;SDS011;7921;43.586;1.408;2023-03-23T15:40:15;4.22;;;3.80;;
15643;SDS011;7921;43.586;1.408;2023-03-23T15:42:42;7.75;;;3.53;;
15643;SDS011;7921;43.586;1.408;2023-03-23T15:50:07;5.05;;;4.05;;
15643;SDS011;7921;43.586;1.408;2023-03-23T15:52:38;4.53;;;3.70;;
15643;SDS011;7921;43.586;1.408;2023-03-23T15:55:14;5.72;;;3.75;;
15643;SDS011;7921;43.586;1.408;2023-03-23T15:57:53;6.97;;;4.30;;
15643;SDS011;7921;43.586;1.408;2023-03-23T16:00:20;5.40;;;3.95;;
15643;SDS011;7921;43.586;1.408;2023-03-23T16:02:49;4.65;;;4.22;;
15643;SDS011;7921;43.586;1.408;2023-03-23T16:05:18;4.68;;;3.47;;
15643;SDS011;7921;43.586;1.408;2023-03-23T16:07:43;4.03;;;3.28;;
15643;SDS011;7921;43.586;1.408;2023-03-23T16:10:16;4.13;;;3.72;;
15643;SDS011;7921;43.586;1.408;2023-03-23T16:12:43;5.95;;;3.90;;
15643;SDS011;7921;43.586;1.408;2023-03-23T16:15:09;3.88;;;3.30;;
15643;SDS011;7921;43.586;1.408;2023-03-23T16:17:35;4.55;;;3.83;;
15643;SDS011;7921;43.586;1.408;2023-03-23T16:20:00;3.90;;;3.47;;
15643;SDS011;7921;43.586;1.408;2023-03-23T16:22:27;4.03;;;3.58;;
15643;SDS011;7921;43.586;1.408;2023-03-23T16:24:52;5.25;;;3.88;;
15643;SDS011;7921;43.586;1.408;2023-03-23T16:27:18;5.68;;;4.07;;
15643;SDS011;7921;43.586;1.408;2023-03-23T16:29:45;7.68;;;3.33;;
15643;SDS011;7921;43.586;1.408;2023-03-23T16:32:11;6.95;;;4.07;;
15643;SDS011;7921;43.586;1.408;2023-03-23T16:34:36;7.95;;;3.72;;
15643;SDS011;7921;43.586;1.408;2023-03-23T16:37:02;4.72;;;3.08;;
15643;SDS011;7921;43.586;1.408;2023-03-23T16:39:28;7.05;;;3.35;;
15643;SDS011;7921;43.586;1.408;2023-03-23T16:41:53;5.68;;;3.60;;
15643;SDS011;7921;43.586;1.408;2023-03-23T16:44:19;5.38;;;3.17;;
15643;SDS011;7921;43.586;1.408;2023-03-23T16:46:44;6.75;;;3.25;;
15643;SDS011;7921;43.586;1.408;2023-03-23T16:49:10;7.75;;;3.42;;
15643;SDS011;7921;43.586;1.408;2023-03-23T16:51:35;6.22;;;3.83;;
15643;SDS011;7921;43.586;1.408;2023-03-23T16:54:01;4.18;;;3.50;;
15643;SDS011;7921;43.586;1.408;2023-03-23T16:56:26;3.53;;;3.10;;
15643;SDS011;7921;43.586;1.408;2023-03-23T16:58:52;5.43;;;4.00;;
15643;SDS011;7921;43.586;1.408;2023-03-23T17:01:17;5.40;;;3.00;;
15643;SDS011;7921;43.586;1.408;2023-03-23T17:03:43;4.40;;;3.28;;
15643;SDS011;7921;43.586;1.408;2023-03-23T17:06:09;4.65;;;3.13;;
15643;SDS011;7921;43.586;1.408;2023-03-23T17:08:34;7.40;;;3.88;;
15643;SDS011;7921;43.586;1.408;2023-03-23T17:11:00;6.55;;;3.25;;